Time;durP1;ratioP1;P1;durP2;ratioP2;P2;SDS_P1;SDS_P2;PMS_P1;PMS_P2;Temp;Humidity;BMP_temperature;BMP_pressure;BME280_temperature;BME280_humidity;BME280_pressure;Samples;Min_cycle;Max_cycle;Signal;HPM_P1;HPM_P2
2023/06/05 00:03:01;;;;;;;1.50;1.50;;;;;;;;;;6336979;28;20301;-70
2023/06/05 00:06:08;;;;;;;1.75;1.30;;;;;;;;;;6337065;28;20293;-70
2023/06/05 00:09:14;;;;;;;4.80;1.20;;;;;;;;;;6336929;28;20301;-71
2023/06/05 00:12:20;;;;;;;1.10;1.10;;;;;;;;;;6337319;28;20290;-70
2023/06/05 00:15:25;;;;;;;0.90;0.90;;;;;;;;;;6336818;28;20309;-70
2023/06/05 00:18:30;;;;;;;1.92;1.42;;;;;;;;;;6336901;28;20285;-71
2023/06/05 00:21:37;;;;;;;4.05;1.13;;;;;;;;;;6336068;28;20290;-71
2023/06/05 00:24:42;;;;;;;2.15;1.02;;;;;;;;;;6335493;28;20619;-70
2023/06/05 00:27:47;;;;;;;0.98;0.98;;;;;;;;;;6336468;28;20294;-72
2023/06/05 00:30:53;;;;;;;1.15;1.15;;;;;;;;;;6335788;28;20298;-71
2023/06/05 00:33:58;;;;;;;1.00;1.00;;;;;;;;;;6335347;28;20301;-72
2023/06/05 00:37:06;;;;;;;1.02;1.02;;;;;;;;;;6336239;28;20285;-69
2023/06/05 00:40:13;;;;;;;1.10;1.10;;;;;;;;;;6335644;28;20329;-70
2023/06/05 00:43:19;;;;;;;1.10;1.10;;;;;;;;;;6336208;28;20589;-71
2023/06/05 00:46:24;;;;;;;1.02;1.02;;;;;;;;;;6335378;28;20322;-70
2023/06/05 00:49:30;;;;;;;1.42;1.30;;;;;;;;;;6335484;28;20285;-70
2023/06/05 00:52:37;;;;;;;1.00;1.00;;;;;;;;;;6335849;28;20289;-70
2023/06/05 00:55:42;;;;;;;1.20;1.20;;;;;;;;;;6335355;28;20293;-71
2023/06/05 00:58:47;;;;;;;1.02;1.02;;;;;;;;;;6337494;28;20589;-70
2023/06/05 01:01:55;;;;;;;2.60;1.10;;;;;;;;;;6317762;28;20290;-70
2023/06/05 01:05:00;;;;;;;1.30;1.30;;;;;;;;;;6308366;28;20298;-71
2023/06/05 01:08:09;;;;;;;1.55;1.30;;;;;;;;;;6310997;28;20286;-70
2023/06/05 01:11:18;;;;;;;1.10;1.10;;;;;;;;;;6311473;28;20314;-70
2023/06/05 01:14:27;;;;;;;1.23;1.13;;;;;;;;;;6291743;28;20314;-70
2023/06/05 01:17:33;;;;;;;1.30;1.27;;;;;;;;;;6309017;28;20591;-70
2023/06/05 01:20:41;;;;;;;2.72;1.20;;;;;;;;;;6308804;28;20594;-70
2023/06/05 01:23:49;;;;;;;1.50;1.40;;;;;;;;;;6308892;28;20270;-70
2023/06/05 01:27:03;;;;;;;1.10;1.10;;;;;;;;;;6309479;28;20254;-70
2023/06/05 01:30:15;;;;;;;1.27;1.20;;;;;;;;;;6309154;28;20290;-70
2023/06/05 01:33:25;;;;;;;1.23;1.15;;;;;;;;;;6307717;28;20591;-70
2023/06/05 01:36:31;;;;;;;2.67;1.08;;;;;;;;;;6307842;28;20325;-70
2023/06/05 01:39:39;;;;;;;1.20;1.20;;;;;;;;;;6309129;28;20287;-70
2023/06/05 01:42:45;;;;;;;1.67;1.30;;;;;;;;;;6308195;28;20290;-69
2023/06/05 01:45:50;;;;;;;1.15;1.15;;;;;;;;;;6307797;28;20294;-70
2023/06/05 01:48:56;;;;;;;1.20;1.08;;;;;;;;;;6308708;28;20305;-70
2023/06/05 01:52:01;;;;;;;1.38;1.27;;;;;;;;;;6309454;28;20295;-71
2023/06/05 01:55:14;;;;;;;1.10;1.10;;;;;;;;;;6309024;28;20289;-70
2023/06/05 01:58:21;;;;;;;1.25;1.15;;;;;;;;;;6307968;28;20539;-70
2023/06/05 02:01:28;;;;;;;1.13;1.13;;;;;;;;;;6307547;28;20297;-70
2023/06/05 02:04:34;;;;;;;1.50;1.40;;;;;;;;;;6297975;28;20298;-69
2023/06/05 02:07:40;;;;;;;1.20;1.20;;;;;;;;;;6308957;28;20289;-70
2023/06/05 02:10:47;;;;;;;1.20;1.20;;;;;;;;;;6308621;28;20306;-71
2023/06/05 02:13:53;;;;;;;1.40;1.40;;;;;;;;;;6308471;28;20586;-70
2023/06/05 02:16:58;;;;;;;1.52;1.20;;;;;;;;;;6291496;28;20290;-70
2023/06/05 02:20:04;;;;;;;1.13;1.13;;;;;;;;;;6290725;28;20290;-71
2023/06/05 02:23:12;;;;;;;2.95;2.13;;;;;;;;;;6308794;28;20294;-70
2023/06/05 02:26:20;;;;;;;3.60;1.20;;;;;;;;;;6290367;28;20306;-70
2023/06/05 02:29:25;;;;;;;2.58;1.20;;;;;;;;;;6308140;28;20290;-70
2023/06/05 02:32:31;;;;;;;2.25;1.35;;;;;;;;;;6308624;28;20294;-72
2023/06/05 02:35:37;;;;;;;2.08;1.88;;;;;;;;;;6290825;28;20298;-70
2023/06/05 02:38:42;;;;;;;1.35;1.25;;;;;;;;;;6289509;28;20468;-69
2023/06/05 02:41:48;;;;;;;2.28;1.20;;;;;;;;;;6290580;28;20266;-70
2023/06/05 02:44:53;;;;;;;1.35;1.17;;;;;;;;;;6293456;28;20298;-71
2023/06/05 02:47:59;;;;;;;2.10;1.13;;;;;;;;;;6295691;28;20439;-69
2023/06/05 02:51:06;;;;;;;1.25;1.25;;;;;;;;;;6295267;28;20303;-70
2023/06/05 02:54:12;;;;;;;5.45;1.45;;;;;;;;;;6294758;28;20479;-69
2023/06/05 02:57:20;;;;;;;2.38;1.40;;;;;;;;;;6295142;28;20289;-69
2023/06/05 03:00:26;;;;;;;1.42;1.33;;;;;;;;;;6294494;28;20306;-70
2023/06/05 03:03:33;;;;;;;1.20;1.20;;;;;;;;;;6293079;28;20286;-70
2023/06/05 03:06:38;;;;;;;1.23;1.23;;;;;;;;;;6311590;28;20318;-70
2023/06/05 03:09:46;;;;;;;1.20;1.20;;;;;;;;;;6311259;28;20299;-69
2023/06/05 03:12:53;;;;;;;2.05;1.20;;;;;;;;;;6311159;28;20294;-70
2023/06/05 03:16:01;;;;;;;4.03;1.35;;;;;;;;;;6310883;28;20303;-69
2023/06/05 03:19:11;;;;;;;1.55;1.30;;;;;;;;;;6311017;28;20294;-70
2023/06/05 03:22:18;;;;;;;4.13;1.30;;;;;;;;;;6311316;28;20286;-70
2023/06/05 03:25:23;;;;;;;1.38;1.30;;;;;;;;;;6312055;28;20306;-69
2023/06/05 03:28:34;;;;;;;1.25;1.15;;;;;;;;;;6311830;28;20294;-71
2023/06/05 03:31:43;;;;;;;1.40;1.40;;;;;;;;;;6311459;28;20291;-70
2023/06/05 03:34:49;;;;;;;1.17;1.17;;;;;;;;;;6310396;28;20290;-70
2023/06/05 03:37:56;;;;;;;1.90;1.35;;;;;;;;;;6311154;28;20297;-69
2023/06/05 03:41:01;;;;;;;5.50;1.50;;;;;;;;;;6310507;28;20299;-71
2023/06/05 03:44:08;;;;;;;1.60;1.60;;;;;;;;;;6310499;28;20297;-71
2023/06/05 03:47:14;;;;;;;2.88;1.30;;;;;;;;;;6310826;28;20293;-70
2023/06/05 03:50:20;;;;;;;1.83;1.30;;;;;;;;;;6310485;28;20570;-69
2023/06/05 03:53:29;;;;;;;3.13;1.48;;;;;;;;;;6311188;28;20286;-69
2023/06/05 03:56:34;;;;;;;1.30;1.30;;;;;;;;;;6310139;28;20290;-71
2023/06/05 03:59:48;;;;;;;3.92;1.52;;;;;;;;;;6310038;28;20295;-69
2023/06/05 04:02:53;;;;;;;2.28;1.40;;;;;;;;;;6315014;28;20293;-70
2023/06/05 04:05:59;;;;;;;2.60;1.77;;;;;;;;;;6336538;28;20538;-70
2023/06/05 04:09:10;;;;;;;4.38;1.48;;;;;;;;;;6336067;28;20500;-69
2023/06/05 04:12:16;;;;;;;3.00;1.42;;;;;;;;;;6318530;28;20293;-70
2023/06/05 04:15:24;;;;;;;2.88;1.42;;;;;;;;;;6317622;28;20289;-70
2023/06/05 04:18:29;;;;;;;2.47;1.40;;;;;;;;;;6335788;28;20282;-69
2023/06/05 04:21:35;;;;;;;3.28;1.52;;;;;;;;;;6318285;28;20591;-69
2023/06/05 04:24:41;;;;;;;6.05;1.70;;;;;;;;;;6317831;28;20593;-70
2023/06/05 04:27:48;;;;;;;7.15;1.85;;;;;;;;;;6318384;28;20304;-70
2023/06/05 04:30:55;;;;;;;3.10;1.75;;;;;;;;;;6317538;28;20297;-69
2023/06/05 04:34:02;;;;;;;5.13;2.17;;;;;;;;;;6317637;28;20419;-69
2023/06/05 04:37:08;;;;;;;2.45;1.40;;;;;;;;;;6318170;28;20297;-69
2023/06/05 04:40:16;;;;;;;7.18;1.60;;;;;;;;;;6317552;28;20456;-69
2023/06/05 04:43:22;;;;;;;3.65;2.15;;;;;;;;;;6335225;28;20602;-69
2023/06/05 04:46:29;;;;;;;7.32;1.90;;;;;;;;;;6318031;28;20297;-69
2023/06/05 04:49:35;;;;;;;8.43;1.95;;;;;;;;;;6317367;28;20301;-70
2023/06/05 04:52:41;;;;;;;3.33;1.35;;;;;;;;;;6317577;28;20297;-69
2023/06/05 04:55:47;;;;;;;2.75;1.40;;;;;;;;;;6317218;28;20613;-69
2023/06/05 04:58:55;;;;;;;1.95;1.38;;;;;;;;;;6317212;28;20297;-69
2023/06/05 05:02:02;;;;;;;3.20;1.30;;;;;;;;;;6317212;28;20585;-70
2023/06/05 05:05:13;;;;;;;3.72;1.40;;;;;;;;;;6316982;28;20318;-69
2023/06/05 05:08:20;;;;;;;2.15;1.48;;;;;;;;;;6315441;28;20286;-69
2023/06/05 05:11:26;;;;;;;2.63;1.20;;;;;;;;;;6317302;28;20285;-70
2023/06/05 05:14:31;;;;;;;2.33;1.40;;;;;;;;;;6334713;28;20294;-70
2023/06/05 05:17:38;;;;;;;1.77;1.40;;;;;;;;;;6334690;28;20293;-69
2023/06/05 05:20:43;;;;;;;2.03;1.30;;;;;;;;;;6333276;28;20290;-69
2023/06/05 05:23:48;;;;;;;2.65;1.45;;;;;;;;;;6316605;28;20297;-70
2023/06/05 05:26:54;;;;;;;2.35;1.20;;;;;;;;;;6316719;28;20271;-70
2023/06/05 05:30:00;;;;;;;2.15;1.50;;;;;;;;;;6316626;28;20293;-69
2023/06/05 05:33:08;;;;;;;1.10;1.10;;;;;;;;;;6317084;28;20301;-70
2023/06/05 05:36:14;;;;;;;1.38;1.20;;;;;;;;;;6316620;28;20298;-69
2023/06/05 05:39:20;;;;;;;1.38;1.10;;;;;;;;;;6316464;28;20286;-70
2023/06/05 05:42:25;;;;;;;1.45;1.17;;;;;;;;;;6334668;28;20553;-70
2023/06/05 05:45:30;;;;;;;3.80;1.30;;;;;;;;;;6334288;28;20293;-70
2023/06/05 05:48:38;;;;;;;2.28;1.30;;;;;;;;;;6333989;28;20294;-69
2023/06/05 05:51:44;;;;;;;9.57;1.98;;;;;;;;;;6334538;28;20365;-70
2023/06/05 05:54:49;;;;;;;5.78;2.40;;;;;;;;;;6334249;28;20313;-70
2023/06/05 05:57:54;;;;;;;8.50;3.85;;;;;;;;;;6334719;28;20290;-70
2023/06/05 06:01:00;;;;;;;2.75;2.60;;;;;;;;;;6333927;28;20286;-69
2023/06/05 06:04:07;;;;;;;2.88;1.80;;;;;;;;;;6333680;28;20289;-68
2023/06/05 06:07:12;;;;;;;2.60;1.30;;;;;;;;;;6334743;28;20479;-71
2023/06/05 06:10:17;;;;;;;3.05;1.50;;;;;;;;;;6334052;28;20293;-70
2023/06/05 06:13:23;;;;;;;1.30;1.20;;;;;;;;;;6334006;28;20285;-69
2023/06/05 06:16:28;;;;;;;2.70;1.25;;;;;;;;;;6334292;28;20305;-69
2023/06/05 06:19:35;;;;;;;10.63;1.90;;;;;;;;;;6337073;28;20298;-68
2023/06/05 06:22:40;;;;;;;1.55;1.30;;;;;;;;;;6339084;28;20302;-70
2023/06/05 06:25:46;;;;;;;3.55;1.58;;;;;;;;;;6338893;28;20589;-69
2023/06/05 06:28:51;;;;;;;2.15;1.33;;;;;;;;;;6338563;28;20582;-69
2023/06/05 06:31:56;;;;;;;4.15;1.30;;;;;;;;;;6338885;28;20551;-70
2023/06/05 06:35:03;;;;;;;1.23;1.23;;;;;;;;;;6338795;28;20302;-69
2023/06/05 06:38:09;;;;;;;1.27;1.27;;;;;;;;;;6338950;28;20289;-70
2023/06/05 06:41:15;;;;;;;2.42;1.20;;;;;;;;;;6337425;28;20290;-70
2023/06/05 06:44:20;;;;;;;1.13;1.02;;;;;;;;;;6338758;28;20290;-69
2023/06/05 06:47:25;;;;;;;1.27;1.23;;;;;;;;;;6338911;28;20578;-69
2023/06/05 06:50:32;;;;;;;5.40;1.20;;;;;;;;;;6338188;28;20317;-70
2023/06/05 06:53:37;;;;;;;1.30;1.20;;;;;;;;;;6336535;28;20591;-71
2023/06/05 06:56:42;;;;;;;1.05;1.05;;;;;;;;;;6319884;28;20270;-69
2023/06/05 06:59:48;;;;;;;2.63;1.20;;;;;;;;;;6319556;28;20313;-70
2023/06/05 07:02:53;;;;;;;1.45;0.90;;;;;;;;;;6338706;28;20609;-69
2023/06/05 07:06:00;;;;;;;8.70;1.15;;;;;;;;;;6337157;28;20289;-70
2023/06/05 07:09:05;;;;;;;1.10;1.10;;;;;;;;;;6337228;28;20297;-71
2023/06/05 07:12:13;;;;;;;4.95;1.20;;;;;;;;;;6337531;28;20450;-70
2023/06/05 07:15:18;;;;;;;1.50;1.40;;;;;;;;;;6337554;28;20293;-70
2023/06/05 07:18:24;;;;;;;2.83;1.05;;;;;;;;;;6337174;28;20305;-69
2023/06/05 07:21:30;;;;;;;4.22;1.30;;;;;;;;;;6337451;28;20289;-71
2023/06/05 07:24:38;;;;;;;1.65;1.30;;;;;;;;;;6336888;28;20290;-70
2023/06/05 07:27:45;;;;;;;8.00;1.73;;;;;;;;;;6337695;28;20314;-70
2023/06/05 07:30:50;;;;;;;1.60;1.40;;;;;;;;;;6335640;28;20297;-70
2023/06/05 07:33:55;;;;;;;1.65;1.10;;;;;;;;;;6336984;28;20301;-70
2023/06/05 07:37:02;;;;;;;3.25;1.40;;;;;;;;;;6337418;28;20296;-70
2023/06/05 07:40:11;;;;;;;4.63;1.30;;;;;;;;;;6336585;28;20293;-70
2023/06/05 07:43:17;;;;;;;2.17;1.20;;;;;;;;;;6336955;28;20289;-71
2023/06/05 07:46:22;;;;;;;3.28;1.10;;;;;;;;;;6337315;28;20297;-69
2023/06/05 07:49:32;;;;;;;1.50;1.23;;;;;;;;;;6336730;28;20297;-71
2023/06/05 07:52:39;;;;;;;6.70;1.40;;;;;;;;;;6337238;28;20314;-70
2023/06/05 07:55:44;;;;;;;3.17;1.50;;;;;;;;;;6336572;28;20293;-70
2023/06/05 07:58:49;;;;;;;1.85;1.13;;;;;;;;;;6336147;28;20434;-70
2023/06/05 08:01:55;;;;;;;1.92;1.23;;;;;;;;;;6336670;28;20289;-71
2023/06/05 08:05:00;;;;;;;1.63;1.20;;;;;;;;;;6335880;28;20563;-70
2023/06/05 08:08:07;;;;;;;1.13;1.13;;;;;;;;;;6336539;28;20294;-72
2023/06/05 08:11:12;;;;;;;2.67;1.30;;;;;;;;;;6335761;28;20589;-71
2023/06/05 08:14:18;;;;;;;1.80;1.10;;;;;;;;;;6335795;28;20293;-70
2023/06/05 08:17:23;;;;;;;4.68;1.10;;;;;;;;;;6336205;28;20609;-71
2023/06/05 08:20:29;;;;;;;4.07;1.33;;;;;;;;;;6335734;28;20298;-70
2023/06/05 08:23:35;;;;;;;2.72;1.33;;;;;;;;;;6335598;28;20807;-70
2023/06/05 08:26:40;;;;;;;5.40;1.13;;;;;;;;;;6335259;28;20266;-70
2023/06/05 08:29:46;;;;;;;2.40;1.17;;;;;;;;;;6335551;28;20298;-72
2023/06/05 08:32:51;;;;;;;1.85;1.10;;;;;;;;;;6335776;28;20265;-70
2023/06/05 08:35:56;;;;;;;3.40;1.17;;;;;;;;;;6335623;28;20293;-71
2023/06/05 08:39:04;;;;;;;2.50;1.20;;;;;;;;;;6335179;28;20376;-69
2023/06/05 08:42:14;;;;;;;1.30;1.27;;;;;;;;;;6334974;28;20306;-70
2023/06/05 08:45:20;;;;;;;1.27;1.00;;;;;;;;;;6335601;28;20371;-70
2023/06/05 08:48:26;;;;;;;5.22;1.50;;;;;;;;;;6335327;28;20301;-69
2023/06/05 08:51:31;;;;;;;2.38;1.27;;;;;;;;;;6336215;28;20285;-70
2023/06/05 08:54:39;;;;;;;2.78;1.48;;;;;;;;;;6335354;28;20299;-71
2023/06/05 08:57:45;;;;;;;2.25;1.38;;;;;;;;;;6335708;28;20294;-70
2023/06/05 09:00:50;;;;;;;1.85;1.20;;;;;;;;;;6335111;28;20294;-71
2023/06/05 09:03:56;;;;;;;2.40;1.33;;;;;;;;;;6334367;28;20285;-70
2023/06/05 09:07:01;;;;;;;10.43;1.45;;;;;;;;;;6335026;28;20293;-70
2023/06/05 09:10:22;;;;;;;1.10;1.10;;;;;;;;;;6334663;28;20301;-70
2023/06/05 09:13:46;;;;;;;1.33;1.33;;;;;;;;;;6309912;28;20290;-70
2023/06/05 09:16:53;;;;;;;1.95;1.20;;;;;;;;;;6309470;28;20305;-71
2023/06/05 09:19:58;;;;;;;3.75;1.25;;;;;;;;;;6309390;28;20310;-69
2023/06/05 09:23:04;;;;;;;1.05;1.05;;;;;;;;;;6291823;28;20301;-71
2023/06/05 09:26:35;;;;;;;2.85;1.25;;;;;;;;;;6309196;28;20500;-70
2023/06/05 09:29:43;;;;;;;7.32;1.25;;;;;;;;;;6308705;28;20298;-70
2023/06/05 09:32:48;;;;;;;4.97;1.30;;;;;;;;;;6309031;28;20266;-70
2023/06/05 09:36:09;;;;;;;1.30;1.20;;;;;;;;;;6309113;28;20297;-70
2023/06/05 09:39:19;;;;;;;4.13;1.27;;;;;;;;;;6308650;28;20294;-70
2023/06/05 09:42:35;;;;;;;4.75;1.30;;;;;;;;;;6308832;28;20294;-70
2023/06/05 09:45:44;;;;;;;1.65;1.52;;;;;;;;;;6291056;28;20303;-72
2023/06/05 09:48:58;;;;;;;1.40;1.30;;;;;;;;;;6309034;28;20282;-71
2023/06/05 09:52:03;;;;;;;2.25;1.20;;;;;;;;;;6309211;28;20295;-71
2023/06/05 09:55:10;;;;;;;4.18;1.20;;;;;;;;;;6316577;28;20314;-70
2023/06/05 09:58:17;;;;;;;4.45;1.40;;;;;;;;;;6316974;28;20290;-71
2023/06/05 10:01:27;;;;;;;3.13;1.42;;;;;;;;;;6316867;28;20298;-69
2023/06/05 10:04:38;;;;;;;6.28;1.70;;;;;;;;;;6316625;28;20299;-70
2023/06/05 10:07:44;;;;;;;6.50;1.52;;;;;;;;;;6318469;28;20310;-70
2023/06/05 10:10:50;;;;;;;7.70;1.92;;;;;;;;;;6323804;28;20457;-70
2023/06/05 10:13:59;;;;;;;7.22;1.83;;;;;;;;;;6342285;28;20289;-69
2023/06/05 10:17:04;;;;;;;13.35;1.92;;;;;;;;;;6324346;28;20289;-70
2023/06/05 10:20:11;;;;;;;6.07;1.50;;;;;;;;;;6341815;28;20298;-71
2023/06/05 10:23:18;;;;;;;2.58;1.60;;;;;;;;;;6323777;28;20285;-71
2023/06/05 10:26:43;;;;;;;2.90;1.45;;;;;;;;;;6342453;28;20548;-71
2023/06/05 10:30:26;;;;;;;3.75;1.50;;;;;;;;;;6307971;28;20602;-69
2023/06/05 10:33:51;;;;;;;2.20;1.67;;;;;;;;;;6341886;28;20295;-70
2023/06/05 10:37:28;;;;;;;2.75;1.58;;;;;;;;;;6342087;28;20538;-69
2023/06/05 10:40:34;;;;;;;6.65;2.17;;;;;;;;;;6341547;28;20301;-71
2023/06/05 10:43:48;;;;;;;4.70;1.55;;;;;;;;;;6341617;28;20289;-70
2023/06/05 10:46:55;;;;;;;4.25;1.60;;;;;;;;;;6342018;28;20290;-70
2023/06/05 10:50:24;;;;;;;1.70;1.60;;;;;;;;;;6341412;28;20305;-70
2023/06/05 10:53:46;;;;;;;2.60;1.42;;;;;;;;;;6341667;28;20319;-70
2023/06/05 10:57:01;;;;;;;5.82;1.63;;;;;;;;;;6341016;28;20266;-70
2023/06/05 11:00:10;;;;;;;3.00;1.70;;;;;;;;;;6341540;28;20332;-72
2023/06/05 11:03:18;;;;;;;7.68;1.60;;;;;;;;;;6341708;28;20293;-70
2023/06/05 11:06:23;;;;;;;3.10;1.55;;;;;;;;;;6338783;28;20329;-70
2023/06/05 11:09:29;;;;;;;2.30;1.58;;;;;;;;;;6337789;28;20301;-70
2023/06/05 11:12:59;;;;;;;1.95;1.85;;;;;;;;;;6338058;28;20306;-69
2023/06/05 11:16:05;;;;;;;2.50;1.45;;;;;;;;;;6337368;28;20294;-72
2023/06/05 11:19:38;;;;;;;2.05;1.77;;;;;;;;;;6337447;28;20388;-69
2023/06/05 11:23:10;;;;;;;3.30;1.67;;;;;;;;;;6337617;28;20293;-71
2023/06/05 11:26:40;;;;;;;1.50;1.50;;;;;;;;;;6338587;28;20293;-71
2023/06/05 11:29:45;;;;;;;4.47;1.73;;;;;;;;;;6328337;28;20302;-70
2023/06/05 11:32:52;;;;;;;1.80;1.73;;;;;;;;;;6337697;28;20262;-70
2023/06/05 11:36:02;;;;;;;2.92;1.65;;;;;;;;;;6336924;28;20358;-70
2023/06/05 11:39:07;;;;;;;10.43;1.80;;;;;;;;;;6336705;28;20302;-71
2023/06/05 11:42:13;;;;;;;8.60;2.17;;;;;;;;;;6337252;28;20294;-71
2023/06/05 11:45:18;;;;;;;1.55;1.42;;;;;;;;;;6336815;28;20298;-70
2023/06/05 11:48:24;;;;;;;1.50;1.50;;;;;;;;;;6336696;28;20294;-71
2023/06/05 11:51:35;;;;;;;1.58;1.58;;;;;;;;;;6336873;28;20309;-70
2023/06/05 11:54:45;;;;;;;2.78;1.80;;;;;;;;;;6336347;28;20290;-71
2023/06/05 11:57:51;;;;;;;3.92;1.40;;;;;;;;;;6336728;28;20289;-69
2023/06/05 12:01:06;;;;;;;4.30;1.95;;;;;;;;;;6336137;28;20297;-71
2023/06/05 12:04:14;;;;;;;7.50;1.65;;;;;;;;;;6336483;28;20297;-70
2023/06/05 12:07:31;;;;;;;6.05;1.85;;;;;;;;;;6337175;28;20285;-70
2023/06/05 12:10:37;;;;;;;1.65;1.55;;;;;;;;;;6335939;28;20290;-71
2023/06/05 12:13:49;;;;;;;2.40;1.40;;;;;;;;;;6335843;28;20302;-70
2023/06/05 12:16:54;;;;;;;1.65;1.60;;;;;;;;;;6336097;28;20290;-69
2023/06/05 12:19:59;;;;;;;2.60;1.50;;;;;;;;;;6336011;28;20302;-71
2023/06/05 12:23:06;;;;;;;1.75;1.58;;;;;;;;;;6336617;28;20293;-70
2023/06/05 12:26:12;;;;;;;3.30;1.60;;;;;;;;;;6335841;28;20292;-70
2023/06/05 12:29:17;;;;;;;8.48;2.53;;;;;;;;;;6335818;28;20343;-71
2023/06/05 12:32:23;;;;;;;7.20;2.25;;;;;;;;;;6336176;28;20293;-71
2023/06/05 12:35:29;;;;;;;11.57;2.00;;;;;;;;;;6335829;28;20298;-70
2023/06/05 12:38:41;;;;;;;10.23;1.90;;;;;;;;;;6335866;28;20294;-71
2023/06/05 12:41:46;;;;;;;2.75;1.80;;;;;;;;;;6334910;28;20286;-69
2023/06/05 12:44:51;;;;;;;3.17;1.67;;;;;;;;;;6335529;28;20305;-71
2023/06/05 12:47:56;;;;;;;2.55;2.35;;;;;;;;;;6337144;28;20380;-69
2023/06/05 12:51:03;;;;;;;8.88;2.30;;;;;;;;;;6335420;28;20301;-70
2023/06/05 12:54:10;;;;;;;13.02;2.95;;;;;;;;;;6335013;28;20285;-71
2023/06/05 12:57:16;;;;;;;15.20;3.10;;;;;;;;;;6335528;28;20289;-71
2023/06/05 13:00:21;;;;;;;8.68;1.90;;;;;;;;;;6335172;28;20315;-70
2023/06/05 13:03:28;;;;;;;12.30;1.70;;;;;;;;;;6335156;28;20294;-69
2023/06/05 13:06:34;;;;;;;7.57;1.60;;;;;;;;;;6335760;28;20380;-70
2023/06/05 13:09:41;;;;;;;4.60;1.65;;;;;;;;;;6317795;28;20301;-71
2023/06/05 13:12:46;;;;;;;12.20;1.67;;;;;;;;;;6335860;28;20297;-70
2023/06/05 13:15:51;;;;;;;22.77;2.53;;;;;;;;;;6334603;28;20289;-70
2023/06/05 13:18:56;;;;;;;2.50;1.50;;;;;;;;;;6334950;28;20285;-70
2023/06/05 13:22:03;;;;;;;7.47;1.63;;;;;;;;;;6334753;28;20297;-70
2023/06/05 13:25:12;;;;;;;7.53;1.40;;;;;;;;;;6334399;28;20296;-70
2023/06/05 13:28:17;;;;;;;15.65;1.45;;;;;;;;;;6333642;28;20289;-70
2023/06/05 13:31:23;;;;;;;6.05;1.42;;;;;;;;;;6335049;28;20324;-71
2023/06/05 13:34:28;;;;;;;5.05;1.63;;;;;;;;;;6316787;28;20289;-70
2023/06/05 13:37:35;;;;;;;5.65;1.50;;;;;;;;;;6335124;28;20290;-70
2023/06/05 13:40:47;;;;;;;7.15;1.67;;;;;;;;;;6334567;28;20297;-70
2023/06/05 13:43:52;;;;;;;4.35;1.60;;;;;;;;;;6334474;28;20294;-71
2023/06/05 13:46:57;;;;;;;14.80;2.00;;;;;;;;;;6334649;28;20297;-70
2023/06/05 13:50:06;;;;;;;7.85;1.63;;;;;;;;;;6334567;28;20309;-71
2023/06/05 13:53:12;;;;;;;7.53;1.70;;;;;;;;;;6334566;28;20314;-70
2023/06/05 13:56:19;;;;;;;4.80;1.58;;;;;;;;;;6333629;28;20286;-72
2023/06/05 13:59:25;;;;;;;4.07;1.77;;;;;;;;;;6334361;28;20310;-70
2023/06/05 14:02:30;;;;;;;2.90;1.50;;;;;;;;;;6334579;28;20293;-70
2023/06/05 14:05:37;;;;;;;4.18;1.90;;;;;;;;;;6309098;28;20286;-70
2023/06/05 14:08:42;;;;;;;1.83;1.25;;;;;;;;;;6307673;28;20295;-71
2023/06/05 14:11:48;;;;;;;10.23;1.58;;;;;;;;;;6323140;28;20293;-70
2023/06/05 14:14:54;;;;;;;4.35;1.88;;;;;;;;;;6333336;28;20369;-70
2023/06/05 14:18:01;;;;;;;3.22;1.30;;;;;;;;;;6333779;28;20281;-71
2023/06/05 14:21:06;;;;;;;5.63;1.55;;;;;;;;;;6333309;28;20297;-71
2023/06/05 14:24:13;;;;;;;3.60;1.40;;;;;;;;;;6315352;28;20297;-70
2023/06/05 14:27:21;;;;;;;5.50;1.55;;;;;;;;;;6333929;28;20301;-71
2023/06/05 14:30:27;;;;;;;8.35;1.70;;;;;;;;;;6333096;28;20302;-71
2023/06/05 14:33:32;;;;;;;3.53;1.48;;;;;;;;;;6333408;28;20310;-71
2023/06/05 14:36:37;;;;;;;4.20;1.50;;;;;;;;;;6333744;28;20294;-70
2023/06/05 14:39:43;;;;;;;4.78;1.70;;;;;;;;;;6335151;28;20289;-71
2023/06/05 14:42:51;;;;;;;3.72;1.60;;;;;;;;;;6338276;28;20297;-71
2023/06/05 14:45:56;;;;;;;2.65;1.38;;;;;;;;;;6338472;28;20297;-70
2023/06/05 14:49:02;;;;;;;4.07;1.33;;;;;;;;;;6341723;28;20482;-70
2023/06/05 14:52:07;;;;;;;4.97;1.70;;;;;;;;;;6343222;28;20301;-71
2023/06/05 14:55:13;;;;;;;1.50;1.50;;;;;;;;;;6344139;28;20298;-70
2023/06/05 14:58:19;;;;;;;2.83;1.42;;;;;;;;;;6343801;28;20293;-70
2023/06/05 15:01:25;;;;;;;9.65;1.70;;;;;;;;;;6343410;28;20293;-71
2023/06/05 15:04:30;;;;;;;6.70;1.58;;;;;;;;;;6361409;28;20289;-69
2023/06/05 15:07:37;;;;;;;3.00;1.30;;;;;;;;;;6352720;28;20301;-71
2023/06/05 15:10:42;;;;;;;2.90;1.30;;;;;;;;;;6350608;28;20285;-70
2023/06/05 15:13:49;;;;;;;6.57;1.60;;;;;;;;;;6369742;28;20289;-72
2023/06/05 15:16:54;;;;;;;3.78;1.98;;;;;;;;;;6353181;28;20298;-71
2023/06/05 15:20:00;;;;;;;6.43;1.75;;;;;;;;;;6370006;28;20349;-71
2023/06/05 15:23:06;;;;;;;34.50;3.00;;;;;;;;;;6365541;28;20294;-70
2023/06/05 15:26:21;;;;;;;5.30;1.70;;;;;;;;;;6364992;28;20300;-71
2023/06/05 15:29:27;;;;;;;2.45;1.20;;;;;;;;;;6345757;28;20292;-71
2023/06/05 15:32:33;;;;;;;7.00;1.42;;;;;;;;;;6362791;28;20605;-71
2023/06/05 15:35:42;;;;;;;5.47;1.92;;;;;;;;;;6360909;28;20305;-71
2023/06/05 15:38:47;;;;;;;6.50;1.75;;;;;;;;;;6361796;28;20286;-70
2023/06/05 15:41:52;;;;;;;2.45;1.70;;;;;;;;;;6362801;28;20281;-71
2023/06/05 15:45:09;;;;;;;11.80;2.08;;;;;;;;;;6361697;28;20292;-70
2023/06/05 15:48:15;;;;;;;4.60;2.35;;;;;;;;;;6362245;28;20293;-72
2023/06/05 15:51:20;;;;;;;7.63;1.90;;;;;;;;;;6360742;28;20290;-71
2023/06/05 15:54:25;;;;;;;6.43;2.08;;;;;;;;;;6361187;28;20380;-71
2023/06/05 15:57:51;;;;;;;5.32;2.35;;;;;;;;;;6362240;28;20325;-71
2023/06/05 16:00:58;;;;;;;1.80;1.80;;;;;;;;;;6361345;28;20332;-70
2023/06/05 16:04:03;;;;;;;2.88;1.60;;;;;;;;;;6360928;28;20297;-71
2023/06/05 16:07:08;;;;;;;6.65;1.67;;;;;;;;;;6344068;28;20312;-69
2023/06/05 16:10:14;;;;;;;9.50;1.85;;;;;;;;;;6359336;28;20293;-70
2023/06/05 16:13:20;;;;;;;8.90;2.00;;;;;;;;;;6361588;28;20289;-71
2023/06/05 16:16:27;;;;;;;1.80;1.63;;;;;;;;;;6361418;28;20292;-70
2023/06/05 16:19:32;;;;;;;4.30;1.88;;;;;;;;;;6360717;28;20308;-70
2023/06/05 16:22:38;;;;;;;2.85;2.45;;;;;;;;;;6362049;28;20293;-70
2023/06/05 16:25:43;;;;;;;5.78;2.28;;;;;;;;;;6360712;28;20293;-70
2023/06/05 16:28:48;;;;;;;3.88;1.80;;;;;;;;;;6342839;28;20285;-70
2023/06/05 16:31:57;;;;;;;1.88;1.77;;;;;;;;;;6361036;28;20292;-71
2023/06/05 16:35:04;;;;;;;4.88;1.73;;;;;;;;;;6360423;28;20296;-71
2023/06/05 16:38:11;;;;;;;6.13;1.83;;;;;;;;;;6361185;28;20582;-70
2023/06/05 16:41:17;;;;;;;6.18;2.13;;;;;;;;;;6342397;28;20288;-71
2023/06/05 16:44:22;;;;;;;6.65;2.33;;;;;;;;;;6359997;28;20293;-69
2023/06/05 16:47:29;;;;;;;4.95;1.77;;;;;;;;;;6361301;28;20292;-70
2023/06/05 16:50:34;;;;;;;7.60;2.08;;;;;;;;;;6360364;28;20289;-70
2023/06/05 16:53:39;;;;;;;6.13;1.92;;;;;;;;;;6359250;28;20765;-70
2023/06/05 16:56:44;;;;;;;8.20;2.20;;;;;;;;;;6360713;28;20265;-72
2023/06/05 16:59:50;;;;;;;4.78;2.00;;;;;;;;;;6342542;28;20292;-71
2023/06/05 17:02:56;;;;;;;6.60;2.75;;;;;;;;;;6359815;28;20297;-71
2023/06/05 17:06:02;;;;;;;10.35;2.22;;;;;;;;;;6360222;28;20443;-70
2023/06/05 17:09:09;;;;;;;10.15;5.38;;;;;;;;;;6360048;28;20570;-71
2023/06/05 17:12:14;;;;;;;2.92;2.40;;;;;;;;;;6359026;28;20297;-70
2023/06/05 17:15:19;;;;;;;11.75;2.67;;;;;;;;;;6359871;28;20292;-70
2023/06/05 17:18:26;;;;;;;9.48;2.63;;;;;;;;;;6341714;28;20469;-70
2023/06/05 17:21:32;;;;;;;5.30;2.22;;;;;;;;;;6360395;28;20288;-71
2023/06/05 17:24:38;;;;;;;16.95;2.20;;;;;;;;;;6359857;28;20293;-70
2023/06/05 17:27:44;;;;;;;15.75;1.98;;;;;;;;;;6360089;28;20293;-71
2023/06/05 17:30:50;;;;;;;14.32;3.05;;;;;;;;;;6359400;28;20296;-71
2023/06/05 17:33:57;;;;;;;3.83;2.75;;;;;;;;;;6359438;28;20284;-71
2023/06/05 17:37:02;;;;;;;17.00;14.38;;;;;;;;;;6360049;28;20297;-71
2023/06/05 17:40:09;;;;;;;55.30;18.13;;;;;;;;;;6341605;28;20312;-71
2023/06/05 17:43:16;;;;;;;15.25;5.30;;;;;;;;;;6359413;28;20288;-71
2023/06/05 17:46:21;;;;;;;14.90;2.88;;;;;;;;;;6360123;28;20289;-71
2023/06/05 17:49:28;;;;;;;11.18;2.20;;;;;;;;;;6360017;28;20297;-72
2023/06/05 17:52:34;;;;;;;6.97;2.28;;;;;;;;;;6359444;28;20297;-71
2023/06/05 17:55:40;;;;;;;8.75;2.20;;;;;;;;;;6359572;28;20249;-71
2023/06/05 17:58:47;;;;;;;10.30;2.17;;;;;;;;;;6359574;28;20293;-71
2023/06/05 18:01:54;;;;;;;11.90;2.50;;;;;;;;;;6359975;28;20296;-72
2023/06/05 18:05:01;;;;;;;12.07;2.33;;;;;;;;;;6359081;28;20293;-71
2023/06/05 18:08:06;;;;;;;9.98;2.88;;;;;;;;;;6360216;28;20300;-71
2023/06/05 18:11:12;;;;;;;18.73;2.15;;;;;;;;;;6357949;28;20313;-71
2023/06/05 18:14:18;;;;;;;5.07;2.10;;;;;;;;;;6360507;28;20293;-71
2023/06/05 18:17:24;;;;;;;6.53;2.10;;;;;;;;;;6365033;28;20288;-71
2023/06/05 18:20:31;;;;;;;5.05;1.75;;;;;;;;;;6364390;28;20293;-71
2023/06/05 18:23:37;;;;;;;18.77;4.07;;;;;;;;;;6345324;28;20296;-73
2023/06/05 18:26:42;;;;;;;12.25;3.60;;;;;;;;;;6346935;28;20270;-70
2023/06/05 18:29:47;;;;;;;2.65;2.10;;;;;;;;;;6364549;28;20293;-70
2023/06/05 18:32:53;;;;;;;8.80;2.28;;;;;;;;;;6364226;28;20284;-71
2023/06/05 18:35:59;;;;;;;2.40;1.90;;;;;;;;;;6364483;28;20297;-71
2023/06/05 18:39:05;;;;;;;2.70;1.98;;;;;;;;;;6363996;28;20297;-70
2023/06/05 18:42:10;;;;;;;12.88;2.85;;;;;;;;;;6364254;28;20289;-70